Latest Coastal Weather Observations for Portland Airport

IDS60701

Issued at 1:55 pm CST Friday 25 April 2014 (issued every 10 minutes, with the page automatically refreshed every 10 minutes)

About coastal observations | Map of coastal stations | Coastal observations for SA | Marine services | Other Formats
Station Details ID: 090171 Name: CASHMORE AIRPORT Lat: -38.31 Lon: 141.47 Height: 80.9 m
Data from the previous 72 hours. | See also: Recent months at Portland Airport
Date/Time
CST
Temp

°C
Wind Pressure Rain
since 9am
mm
Weather Cloud Vis
km
Sea
Height
m
Swell
Dir
 
Speed
knots
Gust
knots
hPa Trend Height
m
Period
s
Dir
25/01:30pm 17.2 N 13 17 1013.0 - 0.0 - - 10 - - - -
25/01:00pm 16.9 N 11 16 1013.5 - 0.0 - - 10 - - - -
25/12:30pm 16.5 N 11 15 1014.2 - 0.0 - - 10 - - - -
25/12:00pm 16.3 NNW 11 17 1015.2 - 0.0 - - 10 - - - -
25/11:30am 15.8 N 10 14 1015.8 - 0.0 - - 10 - - - -
25/11:00am 15.0 N 10 15 1016.1 - 0.0 - - 10 - - - -
25/10:30am 13.4 N 9 13 1016.6 - 0.0 - - 10 - - - -
25/10:00am 12.6 N 9 13 1017.3 - 0.0 - - 10 - - - -
25/09:30am 11.2 N 7 11 1018.0 - 0.0 - - 10 - - - -
25/09:00am 9.5 N 8 10 1018.6 - 0.0 - - 10 - - - -
25/08:30am 8.1 N 7 9 1018.9 - 0.2 - - 10 - - - -
25/08:00am 6.9 N 6 8 1018.9 - 0.2 - - 10 - - - -
25/07:30am 5.2 N 5 7 1018.6 - 0.2 - - 10 - - - -
25/07:00am 4.4 N 5 7 1018.8 - 0.2 - - 10 - - - -
25/06:30am 4.2 N 5 7 1018.9 - 0.2 - - 10 - - - -
25/06:00am 4.6 N 5 7 1019.1 - 0.2 - - 10 - - - -
25/05:30am 4.7 N 6 8 1019.4 - 0.2 - - 10 - - - -
25/05:00am 4.6 N 5 8 1019.5 - 0.0 - - 10 - - - -
25/04:30am 4.5 N 6 7 1019.6 - 0.0 - - 10 - - - -
25/04:00am 4.6 N 6 8 1019.4 - 0.0 - - 10 - - - -
25/03:30am 4.8 N 6 7 1019.5 - 0.0 - - 10 - - - -
25/03:00am 4.7 N 6 7 1019.8 - 0.0 - - 10 - - - -
25/02:30am 5.4 N 6 7 1020.2 - 0.0 - - 10 - - - -
25/02:00am 5.1 N 6 7 1020.5 - 0.0 - - 10 - - - -
25/01:30am 5.4 N 6 7 1020.6 - 0.0 - - 10 - - - -
25/01:00am 4.7 N 6 7 1020.7 - 0.0 - - 10 - - - -
25/12:30am 3.8 NNW 4 5 1020.7 - 0.0 - - 10 - - - -
25/12:00am 4.3 NNW 5 6 1020.6 - 0.0 - - 10 - - - -
 
Date/Time
CST
Temp

°C
Wind Pressure Rain
since 9am
mm
Weather Cloud Vis
km
Sea
Height
m
Swell
Dir
 
Speed
knots
Gust
knots
hPa Trend Height
m
Period
s
Dir
24/11:30pm 4.7 NNW 4 5 1020.8 - 0.0 - - 10 - - - -
24/11:00pm 4.9 NNW 4 4 1021.0 - 0.0 - - 10 - - - -
24/10:30pm 5.1 NNW 3 4 1021.2 - 0.0 - - 10 - - - -
24/10:00pm 5.4 NNW 4 5 1021.3 - 0.0 - - 10 - - - -
24/09:30pm 5.8 NNW 3 4 1021.5 - 0.0 - Partly cloudy 10 - - - -
24/09:00pm 6.3 S 2 4 1021.4 - 0.0 - Cloudy 10 - - - -
24/08:30pm 6.1 CALM 0 0 1021.3 - 0.0 - Cloudy 10 - - - -
24/08:00pm 7.0 CALM 0 0 1021.2 - 0.0 - Partly cloudy 10 - - - -
24/07:30pm 6.7 CALM 0 0 1021.2 - 0.0 - Partly cloudy 10 - - - -
24/07:00pm 6.0 CALM 0 0 1020.9 - 0.0 - - 10 - - - -
24/06:30pm 6.8 CALM 0 0 1020.6 - 0.0 - - 10 - - - -
24/06:00pm 8.1 CALM 0 0 1020.4 - 0.0 - Partly cloudy 10 - - - -
24/05:30pm 9.6 CALM 0 0 1020.1 - 0.0 - Partly cloudy 10 - - - -
24/05:00pm 11.7 SSW 3 5 1019.7 - 0.0 - Cloudy 10 - - - -
24/04:30pm 12.7 SSW 5 7 1019.4 - 0.0 - Cloudy 10 - - - -
24/04:00pm 12.8 S 5 8 1019.4 - 0.0 - Partly cloudy 10 - - - -
24/03:30pm 13.5 S 7 10 1019.1 - 0.0 - Partly cloudy 10 - - - -
24/03:00pm 12.8 SSW 6 9 1018.9 - 0.0 - Partly cloudy 10 - - - -
24/02:30pm 13.1 S 7 12 1018.7 - 0.0 - Mostly cloudy 10 - - - -
24/02:00pm 13.8 S 7 12 1018.6 - 0.0 - Partly cloudy 10 - - - -
24/01:30pm 13.7 S 8 15 1018.6 - 0.0 - Partly cloudy 10 - - - -
24/01:00pm 13.5 SW 8 13 1018.5 - 0.0 - Partly cloudy 10 - - - -
24/12:30pm 13.1 SSW 8 13 1018.7 - 0.0 - Partly cloudy 10 - - - -
24/12:00pm 14.3 SSW 8 14 1018.5 - 0.0 - Partly cloudy 10 - - - -
24/11:30am 13.8 SSW 10 14 1018.5 - 0.0 - Partly cloudy 10 - - - -
24/11:00am 14.1 SW 10 17 1018.4 - 0.0 - Partly cloudy 10 - - - -
24/10:30am 13.9 SW 11 16 1018.2 - 0.0 - Partly cloudy 10 - - - -
24/10:00am 13.8 SW 12 18 1018.1 - 0.0 - Partly cloudy 10 - - - -
24/09:30am 13.7 SW 11 16 1017.8 - 0.0 - Partly cloudy 10 - - - -
24/09:00am 13.1 SW 11 16 1017.5 - 0.0 - Partly cloudy 10 - - - -
24/08:30am 13.1 SW 9 14 1017.1 - 6.8 - Partly cloudy 10 - - - -
24/08:00am 12.3 SW 10 16 1016.7 - 6.8 - Partly cloudy 10 - - - -
24/07:30am 12.1 SW 12 17 1015.9 - 6.8 - Partly cloudy 10 - - - -
24/07:00am 11.6 SW 13 19 1015.2 - 6.8 - Partly cloudy 10 - - - -
24/06:30am 12.3 SW 14 25 1014.6 - 6.8 - Partly cloudy 10 - - - -
24/06:00am 12.2 WSW 13 21 1013.9 - 6.8 - Partly cloudy 10 - - - -
24/05:30am 12.1 SW 13 18 1013.3 - 6.8 - Cloudy 10 - - - -
24/05:00am 12.4 SW 15 22 1012.5 - 6.8 - Partly cloudy 10 - - - -
24/04:30am 12.6 SW 13 19 1011.8 - 6.8 - Partly cloudy 10 - - - -
24/04:00am 12.6 SW 13 19 1011.1 - 6.8 - Partly cloudy 10 - - - -
24/03:33am 12.7 SW 16 26 1010.6 - 6.8 - Partly cloudy 10 - - - -
24/03:30am 12.9 SW 16 26 1010.5 - 6.8 - Partly cloudy 10 - - - -
24/03:27am 12.9 SW 15 26 1010.4 - 6.8 - Partly cloudy 10 - - - -
24/03:20am 12.7 SW 15 25 1010.3 - 6.8 - Partly cloudy 9 - - - -
24/03:00am 13.4 W 15 22 1009.5 - 5.6 - Partly cloudy 7 - - - -
24/02:40am 13.7 W 15 26 1009.6 - 4.4 - Partly cloudy 2 - - - -
24/02:38am 13.8 W 14 19 1009.5 - 3.8 - Partly cloudy 2 - - - -
24/02:30am 13.9 WNW 16 25 1009.0 - 2.2 - Cloudy 5 - - - -
24/02:28am 13.9 NW 18 30 1008.9 - 1.8 - Partly cloudy 9 - - - -
24/02:03am 14.3 NW 19 30 1008.9 - 1.0 - Partly cloudy 3 - - - -
24/02:01am 14.4 NW 18 27 1009.0 - 0.4 - Partly cloudy 5 - - - -
24/02:00am 14.4 NW 18 27 1009.0 - 0.4 - Partly cloudy 8 - - - -
24/01:49am 14.5 NW 15 25 1008.8 - 0.2 - Partly cloudy 10 - - - -
24/01:30am 14.0 NW 14 22 1009.0 - 0.2 - Partly cloudy 10 - - - -
24/01:00am 13.9 NW 14 19 1009.2 - 0.2 - Partly cloudy 10 - - - -
24/12:30am 13.6 NNW 14 20 1009.5 - 0.2 - Partly cloudy 10 - - - -
24/12:00am 13.4 NNW 13 20 1009.8 - 0.2 - Partly cloudy 10 - - - -
 
Date/Time
CST
Temp

°C
Wind Pressure Rain
since 9am
mm
Weather Cloud Vis
km
Sea
Height
m
Swell
Dir
 
Speed
knots
Gust
knots
hPa Trend Height
m
Period
s
Dir
23/11:30pm 13.8 NW 13 20 1010.0 - 0.2 - Partly cloudy 10 - - - -
23/11:00pm 12.7 NW 11 16 1010.5 - 0.2 - Partly cloudy 10 - - - -
23/10:33pm 12.2 NNW 8 11 1010.7 - 0.2 - Partly cloudy 10 - - - -
23/10:30pm 12.1 NNW 8 11 1010.7 - 0.2 - Partly cloudy 10 - - - -
23/10:17pm 12.0 NNW 8 13 1011.0 - 0.2 - Partly cloudy 6 - - - -
23/10:04pm 11.8 NNW 8 11 1011.1 - 0.0 - Partly cloudy 10 - - - -
23/10:00pm 11.8 NNW 9 12 1011.2 - 0.0 - Partly cloudy 10 - - - -
23/09:36pm 12.8 NW 14 21 1011.6 - 0.0 - Partly cloudy 6 - - - -
23/09:30pm 13.3 NNW 14 20 1011.5 - 0.0 - Partly cloudy 10 - - - -
23/09:00pm 13.9 NNW 12 18 1011.5 - 0.0 - Partly cloudy 10 - - - -
23/08:30pm 13.1 NNW 8 13 1011.5 - 0.0 - Partly cloudy 10 - - - -
23/08:00pm 13.5 NNW 9 16 1011.6 - 0.0 - Partly cloudy 10 - - - -
23/07:30pm 14.3 NW 11 16 1012.1 - 0.0 - Partly cloudy 10 - - - -
23/07:00pm 14.2 NW 10 16 1012.2 - 0.0 - Partly cloudy 10 - - - -
23/06:30pm 13.4 NW 8 12 1012.2 - 0.0 - - 10 - - - -
23/06:00pm 13.0 NNW 6 9 1012.0 - 0.0 - Partly cloudy 10 - - - -
23/05:30pm 14.3 NNW 7 10 1011.9 - 0.0 - - 10 - - - -
23/05:00pm 15.4 NW 6 9 1011.9 - 0.0 - - 10 - - - -
23/04:30pm 16.1 WNW 9 13 1011.9 - 0.0 - Partly cloudy 10 - - - -
23/04:00pm 16.1 WNW 9 12 1012.0 - 0.0 - Partly cloudy 10 - - - -
23/03:30pm 16.9 NW 11 16 1012.1 - 0.0 - - 10 - - - -
23/03:00pm 17.3 WNW 11 15 1012.4 - 0.0 - - 10 - - - -
23/02:30pm 17.3 WNW 13 19 1012.6 - 0.0 - - 10 - - - -
23/02:00pm 17.4 NW 13 19 1013.0 - 0.0 - Partly cloudy 10 - - - -
23/01:30pm 16.1 NW 12 19 1013.5 - 0.0 - Partly cloudy 10 - - - -
23/01:00pm 17.0 NNW 13 21 1013.6 - 0.0 - Partly cloudy 10 - - - -
23/12:30pm 15.7 NW 13 22 1014.1 - 0.0 - Partly cloudy 10 - - - -
23/12:00pm 16.3 NNW 12 17 1014.8 - 0.0 - Partly cloudy 10 - - - -
23/11:30am 15.4 NNW 12 19 1015.1 - 0.0 - - - - - - -
23/11:00am 15.1 NNW 10 15 1015.5 - 0.0 - - - - - - -
23/10:30am 13.9 N 11 14 1015.8 - 0.0 - - - - - - -
23/10:00am 12.8 N 9 12 1016.2 - 0.0 - - - - - - -
23/09:30am 12.4 N 8 11 1016.6 - 0.0 - - 10 - - - -
23/09:00am 12.4 NNW 8 11 1016.8 - 0.0 - - 10 - - - -
23/08:30am 11.8 NNW 7 10 1016.9 - 0.4 - - 10 - - - -
23/08:00am 10.7 NNW 7 10 1016.7 - 0.2 - - 10 - - - -
23/07:30am 9.0 N 6 8 1016.6 - 0.2 - - 10 - - - -
23/07:00am 8.3 N 6 7 1016.4 - 0.2 - - 10 - - - -
23/06:30am 7.8 N 6 7 1015.9 - 0.2 - - 10 - - - -
23/06:00am 8.0 N 6 7 1016.3 - 0.2 - - 10 - - - -
23/05:30am 7.5 N 7 8 1016.4 - 0.2 - - 10 - - - -
23/05:00am 7.2 N 6 7 1016.5 - 0.2 - - 10 - - - -
23/04:30am 6.7 NNW 4 5 1016.4 - 0.2 - - 10 - - - -
23/04:00am 6.7 NNW 3 4 1016.4 - 0.2 - - 10 - - - -
23/03:30am 7.1 N 5 6 1016.1 - 0.2 - - 10 - - - -
23/03:13am 7.3 N 6 7 1015.9 - 0.2 - - 10 - - - -
23/03:00am 7.6 N 7 8 1015.9 - 0.2 - Partly cloudy 5 - - - -
23/02:36am 8.3 N 6 8 1016.1 - 0.2 - - 6 - - - -
23/02:30am 8.4 N 5 7 1016.2 - 0.2 - - 10 - - - -
23/02:00am 8.5 N 5 6 1016.6 - 0.2 - - 10 - - - -
23/01:30am 8.9 N 4 5 1016.8 - 0.2 - Partly cloudy 10 - - - -
23/01:00am 9.1 N 6 7 1017.2 - 0.2 - Partly cloudy 10 - - - -
23/12:30am 9.8 N 6 8 1017.3 - 0.2 - Partly cloudy 10 - - - -
23/12:00am 10.6 N 6 7 1017.5 - 0.2 - Partly cloudy 10 - - - -
 
Date/Time
CST
Temp

°C
Wind Pressure Rain
since 9am
mm
Weather Cloud Vis
km
Sea
Height
m
Swell
Dir
 
Speed
knots
Gust
knots
hPa Trend Height
m
Period
s
Dir
22/11:30pm 10.9 NNW 7 8 1017.8 - 0.2 - Cloudy 10 - - - -
22/11:00pm 10.7 NNW 6 7 1017.7 - 0.2 - Partly cloudy 10 - - - -
22/10:32pm 11.3 W 3 4 1017.9 - 0.2 - Partly cloudy 10 - - - -
22/10:30pm 11.4 W 3 4 1017.9 - 0.2 - Partly cloudy 10 - - - -
22/10:18pm 11.6 W 8 11 1018.1 - 0.2 - Partly cloudy 6 - - - -
22/10:00pm 9.9 W 3 4 1018.2 - 0.0 - Partly cloudy 10 - - - -
22/09:30pm 10.2 W 2 4 1018.2 - 0.0 - Partly cloudy 10 - - - -
22/09:00pm 9.4 SW 4 5 1018.1 - 0.0 - Partly cloudy 10 - - - -
22/08:30pm 9.1 SW 4 4 1017.9 - 0.0 - Mostly clear 10 - - - -
22/08:00pm 9.1 SW 3 4 1017.9 - 0.0 - Partly cloudy 10 - - - -
22/07:30pm 9.2 SW 4 4 1017.8 - 0.0 - Partly cloudy 10 - - - -
22/07:00pm 9.4 SW 4 5 1017.6 - 0.0 - - 10 - - - -
22/06:30pm 10.3 SW 4 4 1017.4 - 0.0 - Partly cloudy 10 - - - -
22/06:00pm 11.1 SW 3 4 1017.0 - 0.0 - Partly cloudy 10 - - - -
22/05:30pm 12.8 SW 5 6 1016.8 - 0.0 - Mostly clear 10 - - - -
22/05:00pm 14.0 WSW 7 9 1016.6 - 0.0 - Partly cloudy 10 - - - -
22/04:30pm 15.3 W 8 11 1016.4 - 0.0 - Partly cloudy 10 - - - -
22/04:00pm 15.4 W 10 14 1016.2 - 0.0 - Partly cloudy 10 - - - -
22/03:30pm 15.2 W 10 14 1016.1 - 0.0 - Partly cloudy 10 - - - -
22/03:00pm 15.7 W 8 12 1015.9 - 0.0 - Partly cloudy 10 - - - -
22/02:30pm 16.3 WSW 9 15 1015.7 - 0.0 - Cloudy 10 - - - -
22/02:00pm 15.7 W 9 13 1015.5 - 0.0 - Partly cloudy 10 - - - -
22/01:30pm 15.5 W 9 11 1015.6 - 0.0 - Partly cloudy 10 - - - -

Other Formats:

Comma delimited format used in spreadsheet applications
http://www.bom.gov.au/fwo/IDS60701/IDS60701.94828.axf

JavaScript Object Notation format (JSON) in row-major order
http://www.bom.gov.au/fwo/IDS60701/IDS60701.94828.json